FW1198 Weather Reports


Display with metric or nautical units.
time (UTC)temp
F
wind
direction
speed
MPH
gust
MPH
rain 1hr
in
rain 24hr
in
rain mn
in
humidity
%
barometer
mb
20221130111512 36 170 2.0 3.0 0.00 0.00 0.00 84 1017.1
20221130110010 36 223 0.0 1.0 0.00 0.00 0.00 83 1017.1
20221130104511 36 232 0.0 2.0 0.00 0.00 0.00 83 1017.4
20221130103018 37 221 1.0 3.0 0.00 0.00 0.00 82 1017.2
20221130101504 38 148 0.0 2.0 0.00 0.00 0.00 81 1017.2
20221130100006 38 148 0.0 2.0 0.00 0.00 0.00 81 1017.2
20221130094502 38 149 1.0 3.0 0.00 0.00 0.00 82 1017.2
20221130093102 37 176 0.0 2.0 0.00 0.00 0.00 81 1017.2
20221130091602 37 176 0.0 2.0 0.00 0.00 0.00 80 1017.3
20221130090101 38 176 1.0 2.0 0.00 0.00 0.00 80 1017.3
20221130084555 38 176 1.0 2.0 0.00 0.00 0.00 80 1017.5
20221130083053 38 179 1.0 3.0 0.00 0.00 0.00 79 1017.6
20221130081624 38 190 0.0 2.0 0.00 0.00 0.00 79 1017.7
20221130080048 39 190 1.0 2.0 0.00 0.00 0.00 78 1018.1
20221130074551 39 190 1.0 3.0 0.00 0.00 0.00 76 1017.9
20221130073048 40 189 0.0 1.0 0.00 0.00 0.00 76 1018.0
20221130071557 40 176 1.0 3.0 0.00 0.00 0.00 75 1018.0
20221130070045 40 135 1.0 3.0 0.00 0.00 0.00 76 1018.0
20221130064546 40 163 2.0 3.0 0.00 0.00 0.00 76 1017.9
20221130063044 40 178 0.0 0.0 0.00 0.00 0.00 75 1018.0
20221130061543 41 178 0.0 3.0 0.00 0.00 0.00 74 1017.9
20221130060047 41 175 1.0 3.0 0.00 0.00 0.00 73 1017.9
20221130054543 41 178 1.0 3.0 0.00 0.00 0.00 73 1017.8
20221130053042 41 188 0.0 2.0 0.00 0.00 0.00 72 1017.6
20221130051541 42 188 0.0 2.0 0.00 0.00 0.00 71 1017.5
20221130050056 42 178 1.0 3.0 0.00 0.00 0.00 71 1017.6
20221130044540 42 176 1.0 2.0 0.00 0.00 0.00 70 1017.4
20221130043042 43 176 1.0 3.0 0.00 0.00 0.00 69 1017.3
20221130041554 43 185 0.0 2.0 0.00 0.00 0.00 68 1017.3
20221130040038 44 185 1.0 2.0 0.00 0.00 0.00 67 1017.3
20221130034547 44 190 0.0 2.0 0.00 0.00 0.00 66 1017.2
20221130033037 45 190 1.0 4.0 0.00 0.00 0.00 64 1017.3
20221130031537 46 165 2.0 3.0 0.00 0.00 0.00 63 1017.2
20221130030051 46 158 0.0 2.0 0.00 0.00 0.00 62 1017.0
20221130024535 47 159 1.0 2.0 0.00 0.00 0.00 61 1017.0
20221130023037 48 170 2.0 4.0 0.00 0.00 0.00 59 1016.8
20221130021541 49 225 0.0 1.0 0.00 0.00 0.00 57 1016.6
20221130020034 50 224 1.0 2.0 0.00 0.00 0.00 55 1016.6
20221130014537 51 230 0.0 2.0 0.00 0.00 0.00 53 1016.5
20221130013034 52 233 1.0 3.0 0.00 0.00 0.00 51 1016.5
20221130011533 53 231 1.0 3.0 0.00 0.00 0.00 47 1016.3
20221130010034 55 270 0.0 2.0 0.00 0.00 0.00 44 1016.1
20221130004532 55 270 1.0 3.0 0.00 0.00 0.00 42 1016.0
20221130003036 56 306 1.0 3.0 0.00 0.00 0.00 41 1016.0
20221130001534 56 325 2.0 6.0 0.00 0.00 0.00 40 1016.0
20221130000032 57 346 2.0 5.0 0.00 0.00 0.00 40 1015.9
20221129234530 57 339 3.0 7.0 0.00 0.00 0.00 40 1015.8
20221129233031 57 346 3.0 8.0 0.00 0.00 0.00 39 1015.9
20221129231528 58 253 3.0 8.0 0.00 0.00 0.00 39 1015.9
20221129230028 58 266 2.0 8.0 0.00 0.00 0.00 39 1016.0
20221129224524 58 313 4.0 7.0 0.00 0.00 0.00 39 1016.1
20221129223023 57 295 2.0 6.0 0.00 0.00 0.00 39 1016.2
20221129221523 57 275 3.0 7.0 0.00 0.00 0.00 40 1016.3
20221129220022 58 279 2.0 6.0 0.00 0.00 0.00 39 1016.4
20221129214525 57 306 2.0 4.0 0.00 0.00 0.00 40 1016.6
20221129213025 57 315 3.0 6.0 0.00 0.00 0.00 41 1016.8
20221129211515 56 289 2.0 6.0 0.00 0.00 0.00 41 1016.9
20221129210012 56 306 1.0 6.0 0.00 0.00 0.00 41 1017.1
20221129204514 56 349 1.0 6.0 0.00 0.00 0.00 41 1017.2
20221129203011 55 265 3.0 7.0 0.00 0.00 0.00 41 1017.4
20221129201512 55 15 1.0 4.0 0.00 0.00 0.00 43 1017.7
20221129200007 54 261 3.0 6.0 0.00 0.00 0.00 43 1017.9
20221129194508 54 318 4.0 9.0 0.00 0.00 0.00 44 1018.1
20221129193003 53 8 4.0 6.0 0.00 0.00 0.00 45 1018.2
20221129191503 54 179 1.0 4.0 0.00 0.00 0.00 46 1018.4
20221129190112 52 305 1.0 5.0 0.00 0.00 0.00 48 1018.7
20221129184600 52 341 3.0 7.0 0.00 0.00 0.00 50 1018.8
20221129183058 52 225 2.0 6.0 0.00 0.00 0.00 51 1018.8
20221129181559 52 359 1.0 3.0 0.00 0.00 0.00 52 1018.8
20221129180101 51 185 1.0 4.0 0.00 0.00 0.00 54 1018.8
20221129174550 50 207 1.0 5.0 0.00 0.00 0.00 59 1018.7
20221129173048 49 311 2.0 6.0 0.00 0.00 0.00 65 1018.5
20221129171544 48 263 3.0 6.0 0.00 0.00 0.00 68 1018.6
20221129170041 47 320 3.0 7.0 0.00 0.00 0.00 72 1018.5
20221129164539 46 249 2.0 5.0 0.00 0.00 0.00 74 1018.4
20221129163038 43 344 1.0 4.0 0.00 0.00 0.00 79 1018.3
20221129161546 40 255 0.0 2.0 0.00 0.00 0.00 85 1018.3
20221129160036 38 182 0.0 2.0 0.00 0.00 0.00 87 1018.2
20221129154540 37 182 0.0 3.0 0.00 0.00 0.00 89 1018.0
20221129153034 36 180 0.0 1.0 0.00 0.00 0.00 89 1017.9
20221129151538 36 180 2.0 3.0 0.00 0.00 0.00 89 1017.7
20221129150032 36 199 0.0 2.0 0.00 0.00 0.00 88 1017.6
20221129144539 36 199 0.0 2.0 0.00 0.00 0.00 89 1017.6
20221129143028 36 185 1.0 2.0 0.00 0.00 0.00 88 1017.4
20221129141527 36 170 0.0 2.0 0.00 0.00 0.00 87 1017.3
20221129140031 36 170 2.0 3.0 0.00 0.00 0.00 87 1017.1
20221129134522 36 184 1.0 3.0 0.00 0.00 0.00 87 1017.0
20221129133033 36 181 1.0 2.0 0.00 0.00 0.00 87 1016.9
20221129131520 36 181 2.0 4.0 0.00 0.00 0.00 87 1016.9
20221129130031 36 173 1.0 2.0 0.00 0.00 0.00 87 1016.8
20221129124516 37 171 1.0 3.0 0.00 0.00 0.00 86 1016.8
20221129123023 37 173 2.0 3.0 0.00 0.00 0.00 86 1016.8
20221129121514 37 166 2.0 3.0 0.00 0.00 0.00 86 1016.8
20221129120030 37 179 1.0 2.0 0.00 0.00 0.00 86 1016.8
20221129114509 38 160 1.0 3.0 0.00 0.00 0.00 86 1016.8
20221129113011 38 159 1.0 3.0 0.00 0.00 0.00 85 1016.9